Fancher, New York
Current Conditions -  °F | °C
As of 6:54 PM on Saturday 25 Oct 2014 (Local Time) from KROC Reporting Station
Scattered Clouds Scattered Clouds  
Wind Chill: 58°   Ceiling: Unl
Heat Index: 58°   Visibility: 10mi
Dew Point: 48°   Wind: 14mph
Humidity: 70%   Direction: 280°W
Pressure: 29.6"   Gusts: 22mph
Location:  43.24°N, 78.09°W
Report Text: KROC 252254Z 28012G19KT 10SM FEW030 SCT220 14/09 A2960 RMK AO2 SLP028 T01440089
Loading
Personal Weather Stations






























Interactive Weather Map
Tropical Storm Tracking
New forecast layout! Learn more

10-Day Weather Forecast

Advertisements
Track Severe Weather on mobile